createdAt,value
2022-12-06T00:00:46.924Z,74.57
2022-12-06T00:03:13.867Z,77.55
2022-12-06T00:05:44.718Z,79.10
2022-12-06T00:08:12.788Z,76.88
2022-12-06T00:10:39.261Z,73.28
2022-12-06T00:13:05.750Z,80.88
2022-12-06T00:15:36.451Z,72.03
2022-12-06T00:18:03.656Z,76.53
2022-12-06T00:20:30.068Z,81.03
2022-12-06T00:22:56.649Z,75.50
2022-12-06T00:25:23.037Z,74.15
2022-12-06T00:27:50.729Z,77.97
2022-12-06T00:30:17.478Z,81.28
2022-12-06T00:32:43.888Z,75.28
2022-12-06T00:35:10.317Z,75.07
2022-12-06T00:37:37.289Z,74.57
2022-12-06T00:40:03.959Z,74.63
2022-12-06T00:42:30.375Z,76.28
2022-12-06T00:44:56.829Z,74.22
2022-12-06T00:47:23.285Z,75.22
2022-12-06T00:49:49.780Z,73.90
2022-12-06T00:52:16.176Z,74.57
2022-12-06T00:54:42.684Z,75.07
2022-12-06T00:57:09.301Z,76.53
2022-12-06T00:59:35.674Z,78.55
2022-12-06T01:02:02.112Z,72.57
2022-12-06T01:04:28.723Z,71.40
2022-12-06T01:06:55.107Z,78.25
2022-12-06T01:09:21.572Z,71.78
2022-12-06T01:11:47.972Z,73.30
2022-12-06T01:14:14.407Z,72.68
2022-12-06T01:16:40.939Z,72.80
2022-12-06T01:19:07.472Z,72.75
2022-12-06T01:21:34.206Z,75.30
2022-12-06T01:24:00.648Z,76.32
2022-12-06T01:26:31.048Z,76.25
2022-12-06T01:28:58.987Z,74.55
2022-12-06T01:31:25.687Z,76.10
2022-12-06T01:33:52.293Z,70.28
2022-12-06T01:36:25.972Z,69.18
2022-12-06T01:38:58.293Z,70.18
2022-12-06T01:41:26.518Z,75.93
2022-12-06T01:43:53.848Z,71.22
2022-12-06T01:46:41.532Z,71.30
2022-12-06T01:49:19.314Z,75.70
2022-12-06T01:52:01.496Z,72.85
2022-12-06T01:54:29.591Z,71.95
2022-12-06T01:56:57.802Z,74.60
2022-12-06T01:59:25.781Z,77.75
2022-12-06T02:01:53.297Z,71.25
2022-12-06T02:04:20.393Z,72.57
2022-12-06T02:06:47.766Z,73.10
2022-12-06T02:09:16.487Z,68.47
2022-12-06T02:11:43.620Z,67.30
2022-12-06T02:14:15.316Z,73.20
2022-12-06T02:16:59.713Z,71.22
2022-12-06T02:22:16.136Z,61.85
2022-12-06T02:25:10.528Z,70.85
2022-12-06T02:27:45.301Z,71.65
2022-12-06T02:30:18.484Z,70.93
2022-12-06T02:32:54.657Z,72.07
2022-12-06T02:35:43.335Z,69.00
2022-12-06T02:38:19.865Z,67.45
2022-12-06T02:40:55.008Z,68.05
2022-12-06T02:43:26.100Z,68.45
2022-12-06T02:45:56.925Z,64.95
2022-12-06T02:48:25.719Z,69.97
2022-12-06T02:50:59.414Z,67.53
2022-12-06T02:53:29.076Z,68.57
2022-12-06T02:55:57.099Z,64.70
2022-12-06T02:58:23.598Z,66.95
2022-12-06T03:00:59.762Z,66.13
2022-12-06T03:03:53.816Z,66.50
2022-12-06T03:06:45.746Z,69.18
2022-12-06T03:09:29.489Z,66.85
2022-12-06T03:12:06.677Z,68.35
2022-12-06T03:14:40.798Z,66.40
2022-12-06T03:19:36.306Z,60.85
2022-12-06T03:22:08.814Z,65.32
2022-12-06T03:24:38.387Z,66.00
2022-12-06T03:27:09.849Z,65.60
2022-12-06T03:29:40.689Z,70.05
2022-12-06T03:32:10.425Z,68.97
2022-12-06T03:34:41.397Z,66.50
2022-12-06T03:37:12.038Z,63.47
2022-12-06T03:40:01.513Z,68.82
2022-12-06T03:42:29.112Z,67.75
2022-12-06T03:44:55.470Z,66.47
2022-12-06T03:47:40.062Z,67.20
2022-12-06T03:50:16.676Z,67.95
2022-12-06T03:52:43.272Z,69.22
2022-12-06T03:55:09.910Z,69.55
2022-12-06T03:57:36.371Z,66.93
2022-12-06T04:00:04.171Z,67.00
2022-12-06T04:02:30.587Z,67.53
2022-12-06T04:04:57.940Z,66.88
2022-12-06T04:07:24.262Z,65.70
2022-12-06T04:09:56.181Z,65.75
2022-12-06T04:12:42.628Z,64.65
2022-12-06T04:15:10.180Z,66.80
2022-12-06T04:17:58.827Z,68.07
2022-12-06T04:20:27.270Z,67.78
2022-12-06T04:23:06.175Z,63.80
2022-12-06T04:25:34.796Z,66.05
2022-12-06T04:28:21.764Z,65.40
2022-12-06T04:31:07.144Z,65.97
2022-12-06T04:33:52.213Z,68.03
2022-12-06T04:36:36.989Z,63.08
2022-12-06T04:39:03.894Z,66.72
2022-12-06T04:42:05.330Z,66.55
2022-12-06T04:44:31.721Z,68.55
2022-12-06T04:46:58.136Z,63.47
2022-12-06T04:49:26.323Z,67.90
2022-12-06T04:51:54.126Z,66.97
2022-12-06T04:54:22.064Z,69.63
2022-12-06T04:56:48.974Z,63.75
2022-12-06T04:59:15.439Z,64.10
2022-12-06T05:01:41.851Z,65.32
2022-12-06T05:04:10.070Z,65.68
2022-12-06T05:06:36.665Z,65.85
2022-12-06T05:09:03.893Z,62.13
2022-12-06T05:11:30.415Z,64.90
2022-12-06T05:13:56.770Z,66.35
2022-12-06T05:16:23.246Z,64.95
2022-12-06T05:18:49.691Z,62.42
2022-12-06T05:21:19.284Z,64.60
2022-12-06T05:23:46.017Z,65.28
2022-12-06T05:26:18.041Z,65.05
2022-12-06T05:28:45.773Z,64.45
2022-12-06T05:31:13.192Z,64.57
2022-12-06T05:33:39.761Z,65.75
2022-12-06T05:36:13.013Z,67.75
2022-12-06T05:38:39.616Z,67.53
2022-12-06T05:41:06.775Z,67.57
2022-12-06T05:43:33.356Z,61.85
2022-12-06T05:45:59.900Z,62.30
2022-12-06T05:48:26.572Z,59.42
2022-12-06T05:50:53.663Z,64.40
2022-12-06T05:53:20.990Z,61.47
2022-12-06T05:55:47.578Z,62.63
2022-12-06T05:58:14.655Z,61.47
2022-12-06T06:00:41.099Z,64.22
2022-12-06T06:03:07.671Z,62.38
2022-12-06T06:05:36.341Z,65.85
2022-12-06T06:08:02.706Z,69.80
2022-12-06T06:10:29.081Z,74.78
2022-12-06T06:12:55.521Z,70.47
2022-12-06T06:15:21.865Z,67.70
2022-12-06T06:17:48.245Z,65.53
2022-12-06T06:20:14.681Z,65.95
2022-12-06T06:22:42.365Z,63.58
2022-12-06T06:25:09.640Z,60.72
2022-12-06T06:27:37.691Z,60.58
2022-12-06T06:30:10.221Z,60.05
2022-12-06T06:32:37.454Z,63.83
2022-12-06T06:35:05.190Z,59.35
2022-12-06T06:37:33.006Z,61.42
2022-12-06T06:40:00.520Z,63.13
2022-12-06T06:42:27.357Z,60.72
2022-12-06T06:44:54.600Z,57.42
2022-12-06T06:47:22.400Z,57.90
2022-12-06T06:49:49.052Z,59.83
2022-12-06T06:52:15.728Z,60.28
2022-12-06T06:54:42.060Z,57.38
2022-12-06T06:57:12.854Z,56.20
2022-12-06T06:59:43.039Z,59.60
2022-12-06T07:02:13.322Z,59.15
2022-12-06T07:04:39.929Z,56.38
2022-12-06T07:07:06.512Z,57.08
2022-12-06T07:09:33.871Z,54.28
2022-12-06T07:12:00.534Z,56.83
2022-12-06T07:14:26.955Z,59.45
2022-12-06T07:16:53.400Z,58.95
2022-12-06T07:19:19.790Z,62.15
2022-12-06T07:21:46.205Z,57.58
2022-12-06T07:24:12.782Z,61.33
2022-12-06T07:26:39.129Z,59.13
2022-12-06T07:29:05.500Z,55.05
2022-12-06T07:31:33.623Z,58.83
2022-12-06T07:34:01.425Z,56.30
2022-12-06T07:36:30.639Z,55.83
2022-12-06T07:38:58.645Z,54.53
2022-12-06T07:41:46.193Z,54.28
2022-12-06T07:44:34.036Z,56.53
2022-12-06T07:47:00.709Z,54.78
2022-12-06T07:49:27.155Z,53.58
2022-12-06T07:51:54.865Z,52.90
2022-12-06T07:54:21.609Z,54.10
2022-12-06T07:56:47.941Z,55.50
2022-12-06T07:59:14.498Z,53.08
2022-12-06T08:01:41.290Z,52.13
2022-12-06T08:04:08.085Z,55.72
2022-12-06T08:06:35.365Z,53.30
2022-12-06T08:09:01.982Z,54.72
2022-12-06T08:11:28.721Z,56.58
2022-12-06T08:13:55.077Z,55.58
2022-12-06T08:16:21.467Z,56.63
2022-12-06T08:18:47.871Z,55.60
2022-12-06T08:21:14.295Z,52.45
2022-12-06T08:23:40.690Z,55.10
2022-12-06T08:26:09.965Z,54.92
2022-12-06T08:28:37.579Z,54.58
2022-12-06T08:31:09.442Z,57.65
2022-12-06T08:33:36.631Z,55.70
2022-12-06T08:36:08.861Z,55.83
2022-12-06T08:38:37.114Z,57.28
2022-12-06T08:41:04.866Z,53.20
2022-12-06T08:43:31.701Z,56.72
2022-12-06T08:45:58.281Z,55.75
2022-12-06T08:48:24.658Z,56.88
2022-12-06T08:50:51.035Z,53.50
2022-12-06T08:53:17.585Z,51.70
2022-12-06T08:55:58.741Z,59.72
2022-12-06T08:58:29.145Z,55.00
2022-12-06T09:00:55.506Z,58.40
2022-12-06T09:03:21.943Z,51.78
2022-12-06T09:05:48.321Z,53.85
2022-12-06T09:08:14.966Z,54.83
2022-12-06T09:10:43.029Z,51.72
2022-12-06T09:13:09.441Z,54.70
2022-12-06T09:15:37.425Z,51.88
2022-12-06T09:18:03.969Z,53.20
2022-12-06T09:20:30.377Z,56.88
2022-12-06T09:22:57.771Z,51.63
2022-12-06T09:25:24.175Z,54.53
2022-12-06T09:27:50.549Z,53.70
2022-12-06T09:30:17.485Z,54.75
2022-12-06T09:32:43.951Z,55.72
2022-12-06T09:35:15.117Z,53.47
2022-12-06T09:37:42.771Z,49.72
2022-12-06T09:40:21.294Z,51.00
2022-12-06T09:42:53.560Z,51.88
2022-12-06T09:45:50.466Z,50.67
2022-12-06T09:48:48.751Z,51.72
2022-12-06T09:51:33.990Z,51.97
2022-12-06T09:54:33.623Z,51.90
2022-12-06T09:57:12.075Z,50.45
2022-12-06T09:59:57.490Z,48.60
2022-12-06T10:02:36.397Z,57.60
2022-12-06T10:05:12.028Z,50.05
2022-12-06T10:08:08.664Z,50.03
2022-12-06T10:10:53.780Z,50.50
2022-12-06T10:13:43.626Z,47.53
2022-12-06T10:16:39.396Z,50.95
2022-12-06T10:19:35.260Z,51.67
2022-12-06T10:22:07.676Z,46.85
2022-12-06T10:24:37.183Z,46.05
2022-12-06T10:27:20.072Z,51.08
2022-12-06T10:30:01.779Z,48.95
2022-12-06T10:32:40.321Z,48.50
2022-12-06T10:35:35.590Z,48.75
2022-12-06T10:38:08.085Z,47.50
2022-12-06T10:40:49.702Z,47.60
2022-12-06T10:43:23.459Z,48.95
2022-12-06T10:46:24.042Z,50.63
2022-12-06T10:49:00.906Z,50.67
2022-12-06T10:51:43.496Z,46.63
2022-12-06T10:54:28.065Z,44.85
2022-12-06T10:59:32.624Z,53.15
2022-12-06T11:02:04.750Z,45.33
2022-12-06T11:04:36.677Z,43.17
2022-12-06T11:07:13.772Z,47.92
2022-12-06T11:09:45.977Z,46.10
2022-12-06T11:12:31.493Z,46.75
2022-12-06T11:15:18.152Z,52.85
2022-12-06T11:18:04.382Z,52.50
2022-12-06T11:20:39.758Z,51.42
2022-12-06T11:23:24.875Z,52.22
2022-12-06T11:26:44.508Z,53.00
2022-12-06T11:29:13.131Z,52.17
2022-12-06T11:31:52.808Z,51.88
2022-12-06T11:34:36.266Z,53.78
2022-12-06T11:37:04.143Z,55.75
2022-12-06T11:39:32.475Z,50.30
2022-12-06T11:42:03.057Z,50.58
2022-12-06T11:44:38.719Z,50.53
2022-12-06T11:47:06.722Z,51.17
2022-12-06T11:49:42.379Z,52.25
2022-12-06T11:52:33.897Z,51.25
2022-12-06T11:55:05.577Z,54.75
2022-12-06T11:57:55.342Z,52.13
2022-12-06T12:00:24.404Z,52.92
2022-12-06T12:02:54.380Z,52.15
2022-12-06T12:05:24.520Z,53.38
2022-12-06T12:08:17.717Z,49.40
2022-12-06T12:10:46.251Z,54.47
2022-12-06T12:13:51.123Z,53.50
2022-12-06T12:16:22.983Z,55.17
2022-12-06T12:19:19.323Z,45.65
2022-12-06T12:21:49.626Z,45.30
2022-12-06T12:25:18.482Z,46.50
2022-12-06T12:27:40.307Z,47.22
2022-12-06T12:30:35.171Z,49.30
2022-12-06T12:35:35.480Z,47.45
2022-12-06T12:38:18.286Z,44.97
2022-12-06T12:40:52.095Z,40.78
2022-12-06T12:43:29.479Z,40.55
2022-12-06T12:46:05.234Z,40.05
2022-12-06T12:48:32.123Z,39.22
2022-12-06T12:51:01.523Z,40.45
2022-12-06T12:53:32.156Z,43.22
2022-12-06T12:56:20.610Z,44.97
2022-12-06T12:58:49.291Z,38.22
2022-12-06T13:01:24.891Z,38.08
2022-12-06T13:03:57.220Z,39.25
2022-12-06T13:06:45.289Z,32.55
2022-12-06T13:09:19.963Z,32.58
2022-12-06T13:11:53.253Z,32.08
2022-12-06T13:14:22.331Z,35.60
2022-12-06T13:16:53.304Z,30.42
2022-12-06T13:19:24.148Z,22.45
2022-12-06T13:21:51.881Z,22.85
2022-12-06T13:24:24.435Z,21.17
2022-12-06T13:26:58.716Z,18.15
2022-12-06T13:29:28.047Z,16.27
2022-12-06T13:31:58.158Z,15.23
2022-12-06T13:34:24.406Z,14.20
2022-12-06T13:36:53.646Z,15.43
2022-12-06T13:39:32.301Z,16.63
2022-12-06T13:42:18.927Z,15.93
2022-12-06T13:44:48.204Z,18.80
2022-12-06T13:47:26.669Z,22.92
2022-12-06T13:50:22.024Z,23.38
2022-12-06T13:52:48.273Z,24.33
2022-12-06T13:55:23.872Z,25.48
2022-12-06T13:57:51.224Z,22.15
2022-12-06T14:00:29.734Z,20.48
2022-12-06T14:03:03.412Z,15.57
2022-12-06T14:08:29.960Z,12.30
2022-12-06T14:11:15.223Z,11.67
2022-12-06T14:13:43.627Z,11.63
2022-12-06T14:16:22.824Z,11.38
2022-12-06T14:18:50.270Z,11.27
2022-12-06T14:21:30.768Z,10.73
2022-12-06T14:23:57.592Z,10.48
2022-12-06T14:26:27.745Z,11.52
2022-12-06T14:28:57.113Z,12.45
2022-12-06T14:31:30.370Z,11.35
2022-12-06T14:33:57.137Z,12.63
2022-12-06T14:36:30.372Z,11.23
2022-12-06T14:39:01.367Z,12.17
2022-12-06T14:41:53.031Z,11.10
2022-12-06T14:44:20.943Z,11.00
2022-12-06T14:46:49.335Z,11.10
2022-12-06T14:49:37.931Z,11.65
2022-12-06T14:52:18.178Z,11.20
2022-12-06T14:54:45.840Z,10.27
2022-12-06T14:57:24.133Z,10.77
2022-12-06T15:00:15.154Z,10.55
2022-12-06T15:03:11.333Z,9.80
2022-12-06T15:05:44.193Z,10.82
2022-12-06T15:08:25.885Z,10.68
2022-12-06T15:10:58.289Z,10.30
2022-12-06T15:13:25.022Z,9.82
2022-12-06T15:16:08.022Z,10.45
2022-12-06T15:18:43.321Z,10.13
2022-12-06T15:21:14.175Z,11.27
2022-12-06T15:23:48.302Z,11.48
2022-12-06T15:28:41.621Z,12.30
2022-12-06T15:31:19.101Z,11.55
2022-12-06T15:33:46.366Z,13.63
2022-12-06T15:36:18.277Z,13.63
2022-12-06T15:38:45.102Z,14.63
2022-12-06T15:41:26.112Z,15.30
2022-12-06T15:43:53.637Z,15.55
2022-12-06T15:46:28.548Z,14.38
2022-12-06T15:48:55.802Z,14.30
2022-12-06T15:51:27.672Z,13.40
2022-12-06T15:53:55.918Z,13.70
2022-12-06T15:56:25.542Z,13.13
2022-12-06T15:58:51.938Z,12.50
2022-12-06T16:01:33.083Z,12.63
2022-12-06T16:03:59.652Z,12.35
2022-12-06T16:06:27.646Z,12.35
2022-12-06T16:08:54.247Z,12.35
2022-12-06T16:11:23.803Z,12.43
2022-12-06T16:13:50.822Z,12.98
2022-12-06T16:16:22.105Z,12.82
2022-12-06T16:18:49.614Z,14.00
2022-12-06T16:21:34.752Z,15.30
2022-12-06T16:24:17.997Z,13.60
2022-12-06T16:26:45.679Z,14.02
2022-12-06T16:29:19.070Z,14.15
2022-12-06T16:31:45.636Z,15.20
2022-12-06T16:34:12.470Z,14.35
2022-12-06T16:36:58.673Z,16.92
2022-12-06T16:39:26.277Z,15.27
2022-12-06T16:41:52.978Z,16.45
2022-12-06T16:44:19.487Z,17.50
2022-12-06T16:46:46.445Z,17.45
2022-12-06T16:52:08.072Z,16.73
2022-12-06T16:54:34.556Z,17.10
2022-12-06T16:57:03.455Z,17.98
2022-12-06T16:59:32.400Z,19.52
2022-12-06T17:01:59.369Z,18.33
2022-12-06T17:04:26.653Z,18.65
2022-12-06T17:06:53.137Z,18.58
2022-12-06T17:09:19.686Z,19.80
2022-12-06T17:12:06.035Z,20.73
2022-12-06T17:14:34.221Z,19.38
2022-12-06T17:17:03.940Z,19.05
2022-12-06T17:19:33.126Z,20.67
2022-12-06T17:22:02.163Z,18.70
2022-12-06T17:24:28.823Z,18.15
2022-12-06T17:26:55.767Z,17.80
2022-12-06T17:29:23.429Z,17.60
2022-12-06T17:31:49.854Z,17.67
2022-12-06T17:34:16.651Z,18.70
2022-12-06T17:36:43.034Z,17.40
2022-12-06T17:39:10.491Z,17.90
2022-12-06T17:41:55.626Z,17.85
2022-12-06T17:44:22.079Z,16.88
2022-12-06T17:46:48.462Z,18.42
2022-12-06T17:49:18.256Z,17.95
2022-12-06T17:51:45.166Z,17.02
2022-12-06T17:54:12.186Z,17.25
2022-12-06T17:56:41.329Z,17.17
2022-12-06T17:59:13.973Z,16.83
2022-12-06T18:02:06.613Z,15.75
2022-12-06T18:04:31.392Z,15.52
2022-12-06T18:06:58.477Z,16.00
2022-12-06T18:09:25.093Z,15.88
2022-12-06T18:11:51.472Z,16.13
2022-12-06T18:14:18.835Z,16.60
2022-12-06T18:16:46.004Z,16.13
2022-12-06T18:19:16.222Z,15.35
2022-12-06T18:21:43.192Z,17.25
2022-12-06T18:24:21.527Z,16.92
2022-12-06T18:26:49.539Z,15.13
2022-12-06T18:29:22.662Z,15.38
2022-12-06T18:31:50.249Z,14.95
2022-12-06T18:34:17.365Z,15.18
2022-12-06T18:36:44.079Z,16.27
2022-12-06T18:39:15.310Z,15.55
2022-12-06T18:41:42.953Z,16.63
2022-12-06T18:44:10.449Z,17.02
2022-12-06T18:46:38.593Z,18.70
2022-12-06T18:49:05.085Z,18.95
2022-12-06T18:51:34.424Z,19.77
2022-12-06T18:54:02.993Z,21.20
2022-12-06T18:56:30.241Z,19.73
2022-12-06T18:59:02.036Z,20.30
2022-12-06T19:01:31.000Z,18.17
2022-12-06T19:04:03.068Z,23.13
2022-12-06T19:06:33.064Z,20.15
2022-12-06T19:09:06.515Z,23.08
2022-12-06T19:11:36.582Z,23.52
2022-12-06T19:14:03.337Z,22.60
2022-12-06T19:16:34.365Z,24.02
2022-12-06T19:19:03.423Z,22.88
2022-12-06T19:21:32.849Z,23.92
2022-12-06T19:23:59.289Z,24.77
2022-12-06T19:26:26.653Z,26.08
2022-12-06T19:28:53.428Z,29.25
2022-12-06T19:31:22.828Z,26.98
2022-12-06T19:33:50.546Z,28.98
2022-12-06T19:36:28.748Z,26.67
2022-12-06T19:39:06.125Z,28.83
2022-12-06T19:41:53.204Z,27.85
2022-12-06T19:44:19.570Z,27.08
2022-12-06T19:46:46.491Z,31.00
2022-12-06T19:49:14.181Z,28.35
2022-12-06T19:51:42.889Z,29.50
2022-12-06T19:54:11.603Z,29.05
2022-12-06T19:56:39.240Z,29.17
2022-12-06T19:59:11.557Z,31.75
2022-12-06T20:01:40.264Z,30.70
2022-12-06T20:04:06.894Z,31.75
2022-12-06T20:06:34.934Z,31.60
2022-12-06T20:09:01.575Z,31.90
2022-12-06T20:11:47.096Z,30.80
2022-12-06T20:14:17.268Z,28.27
2022-12-06T20:16:44.642Z,29.63
2022-12-06T20:19:27.820Z,30.50
2022-12-06T20:21:54.253Z,29.20
2022-12-06T20:24:21.866Z,31.25
2022-12-06T20:26:50.143Z,30.73
2022-12-06T20:29:18.306Z,31.10
2022-12-06T20:31:45.591Z,32.50
2022-12-06T20:34:15.393Z,30.92
2022-12-06T20:36:42.810Z,30.27
2022-12-06T20:39:19.394Z,30.77
2022-12-06T20:41:45.746Z,29.95
2022-12-06T20:44:12.270Z,30.98
2022-12-06T20:46:38.750Z,31.85
2022-12-06T20:49:05.640Z,32.88
2022-12-06T20:51:33.231Z,33.92
2022-12-06T20:54:02.167Z,33.05
2022-12-06T20:56:35.377Z,32.40
2022-12-06T20:59:03.407Z,31.50
2022-12-06T21:01:36.362Z,31.50
2022-12-06T21:04:03.243Z,33.92
2022-12-06T21:06:29.610Z,35.55
2022-12-06T21:08:56.031Z,34.28
2022-12-06T21:11:24.523Z,35.78
2022-12-06T21:13:53.414Z,37.35
2022-12-06T21:16:26.283Z,36.35
2022-12-06T21:18:58.748Z,36.67
2022-12-06T21:21:32.210Z,37.50
2022-12-06T21:24:00.138Z,39.00
2022-12-06T21:26:27.131Z,37.38
2022-12-06T21:28:54.449Z,37.42
2022-12-06T21:31:21.255Z,38.33
2022-12-06T21:33:47.601Z,38.17
2022-12-06T21:36:13.953Z,42.65
2022-12-06T21:38:40.311Z,39.72
2022-12-06T21:41:15.119Z,41.30
2022-12-06T21:43:41.426Z,40.47
2022-12-06T21:46:12.073Z,41.88
2022-12-06T21:48:38.591Z,40.33
2022-12-06T21:51:08.042Z,42.58
2022-12-06T21:53:34.770Z,42.83
2022-12-06T21:56:07.299Z,42.08
2022-12-06T21:58:35.070Z,40.50
2022-12-06T22:01:06.179Z,41.38
2022-12-06T22:03:33.063Z,40.38
2022-12-06T22:06:03.934Z,42.00
2022-12-06T22:08:30.306Z,44.78
2022-12-06T22:10:57.305Z,39.63
2022-12-06T22:13:23.614Z,40.30
2022-12-06T22:15:50.045Z,43.40
2022-12-06T22:18:16.468Z,45.05
2022-12-06T22:20:42.845Z,43.30
2022-12-06T22:23:09.153Z,45.00
2022-12-06T22:25:39.198Z,43.45
2022-12-06T22:28:05.643Z,41.25
2022-12-06T22:30:31.981Z,46.28
2022-12-06T22:32:58.283Z,46.30
2022-12-06T22:35:24.624Z,45.80
2022-12-06T22:37:50.936Z,46.88
2022-12-06T22:40:17.246Z,47.90
2022-12-06T22:42:43.567Z,46.03
2022-12-06T22:45:10.373Z,46.47
2022-12-06T22:47:36.705Z,47.65
2022-12-06T22:50:03.647Z,46.03
2022-12-06T22:52:30.409Z,48.25
2022-12-06T22:54:56.778Z,47.35
2022-12-06T22:57:23.399Z,51.08
2022-12-06T22:59:49.754Z,48.38
2022-12-06T23:02:16.181Z,49.63
2022-12-06T23:04:42.586Z,48.60
2022-12-06T23:07:09.576Z,48.40
2022-12-06T23:09:36.026Z,49.22
2022-12-06T23:12:02.445Z,49.40
2022-12-06T23:14:28.880Z,54.97
2022-12-06T23:16:55.272Z,49.97
2022-12-06T23:19:21.626Z,50.35
2022-12-06T23:21:48.143Z,50.85
2022-12-06T23:24:14.824Z,47.33
2022-12-06T23:26:53.135Z,48.80
2022-12-06T23:29:21.075Z,44.78
2022-12-06T23:31:47.577Z,45.67
2022-12-06T23:34:21.952Z,49.40
2022-12-06T23:36:49.335Z,46.72
2022-12-06T23:39:15.730Z,48.78
2022-12-06T23:41:42.404Z,47.33
2022-12-06T23:44:11.434Z,48.55
2022-12-06T23:46:39.720Z,52.83
2022-12-06T23:49:06.918Z,54.70
2022-12-06T23:51:38.235Z,54.42
2022-12-06T23:54:07.252Z,57.95
2022-12-06T23:56:36.685Z,58.13
2022-12-06T23:59:04.698Z,61.00
